Station Historical Data
Daily Summary for December 3, 2017 Units:  Metric    English   Both
« Previous Day
Next Day »
Daily Weekly Monthly Yearly Custom
  High: Low: Average:
Temperature: 8.3 °C -1.2 °C 3.4 °C
Dew Point: 4.5 °C -3.1 °C 0.7 °C
Humidity: 91% 70% 83%
Wind Speed: 17.7km/h 0km/h 2.9km/h
Wind Gust: 24.1km/h - -
Wind- - WSW
Pressure: 1025.3 hPa 1020.5 hPa -
Precipitation: 0 mm    
Historical Graphs
 
 
Tabular Data for December 3, 2017
Time Temperature Dew Point Pressure Wind Wind Speed Wind Gust Humidity Rainfall Rate (Hourly)
00:04 3.2 °C -0.3 °C 1020.9 hPa Calm     78% 0 mm
00:09 3.2 °C -0.3 °C 1021.2 hPa Calm     78% 0 mm
00:14 3.1 °C -0.4 °C 1020.9 hPa Calm     78% 0 mm
00:19 3.1 °C -0.2 °C 1020.9 hPa Calm     79% 0 mm
00:29 2.9 °C -0.4 °C 1020.9 hPa Calm     79% 0 mm
00:34 2.8 °C -0.4 °C 1020.9 hPa Calm     79% 0 mm
00:39 2.8 °C -0.4 °C 1020.9 hPa Calm     79% 0 mm
00:44 2.7 °C -0.6 °C 1020.5 hPa Calm     79% 0 mm
00:49 2.7 °C -0.6 °C 1020.5 hPa Calm     79% 0 mm
00:54 2.5 °C -0.6 °C 1020.5 hPa Calm     80% 0 mm
00:59 2.3 °C -0.8 °C 1020.9 hPa Calm     80% 0 mm
01:09 2.1 °C -0.9 °C 1020.9 hPa Calm     81% 0 mm
01:14 2 °C -0.9 °C 1020.5 hPa Calm     81% 0 mm
01:19 1.9 °C -0.8 °C 1020.5 hPa Calm     82% 0 mm
01:29 1.8 °C -0.9 °C 1020.9 hPa Calm     82% 0 mm
01:34 1.8 °C -0.9 °C 1020.9 hPa Calm     82% 0 mm
01:39 1.8 °C -0.9 °C 1020.9 hPa Calm     82% 0 mm
01:44 1.7 °C -0.8 °C 1020.9 hPa Calm     83% 0 mm
01:49 1.8 °C -0.8 °C 1020.9 hPa Calm     83% 0 mm
01:54 1.8 °C -0.7 °C 1020.9 hPa Calm     83% 0 mm
01:59 1.9 °C -0.7 °C 1020.9 hPa Calm     83% 0 mm
02:09 1.9 °C -0.7 °C 1020.9 hPa Calm     83% 0 mm
02:24 1.8 °C -0.7 °C 1021.2 hPa Calm     83% 0 mm
02:29 1.8 °C -0.8 °C 1021.2 hPa Calm     83% 0 mm
02:34 1.7 °C -0.8 °C 1021.2 hPa Calm     83% 0 mm
02:39 1.7 °C -0.7 °C 1021.2 hPa Calm     84% 0 mm
02:44 1.7 °C -0.7 °C 1021.2 hPa Calm     84% 0 mm
02:49 1.7 °C -0.7 °C 1021.2 hPa Calm     84% 0 mm
02:54 1.6 °C -0.8 °C 1021.2 hPa Calm     84% 0 mm
02:59 1.6 °C -0.8 °C 1021.2 hPa Calm     84% 0 mm
03:09 1.8 °C -0.6 °C 1020.9 hPa Calm     84% 0 mm
03:14 1.8 °C -0.7 °C 1020.9 hPa Calm     83% 0 mm
03:24 1.7 °C -0.8 °C 1020.9 hPa Calm     83% 0 mm
03:34 1.6 °C -0.9 °C 1020.9 hPa Calm     83% 0 mm
03:39 1.7 °C -0.9 °C 1020.9 hPa Calm     83% 0 mm
03:44 1.6 °C -0.9 °C 1020.9 hPa Calm     83% 0 mm
03:54 1.5 °C -1.1 °C 1020.9 hPa Calm     83% 0 mm
03:59 1.4 °C -1.1 °C 1020.9 hPa Calm     83% 0 mm
04:04 1.4 °C -1.2 °C 1020.9 hPa Calm     83% 0 mm
04:14 1.2 °C -1.2 °C 1020.9 hPa Calm     84% 0 mm
04:19 1.1 °C -1.3 °C 1020.9 hPa Calm     84% 0 mm
04:24 0.9 °C -1.4 °C 1020.5 hPa Calm     84% 0 mm
04:29 0.8 °C -1.4 °C 1020.9 hPa Calm     85% 0 mm
04:34 0.6 °C -1.6 °C 1020.5 hPa Calm     85% 0 mm
04:39 0.7 °C -1.6 °C 1020.5 hPa Calm     85% 0 mm
04:44 0.7 °C -1.4 °C 1020.5 hPa Calm     86% 0 mm
04:49 0.7 °C -1.4 °C 1020.5 hPa Calm     86% 0 mm
04:54 0.6 °C -1.4 °C 1020.5 hPa Calm     86% 0 mm
04:59 0.5 °C -1.6 °C 1020.5 hPa Calm     86% 0 mm
05:04 0.3 °C -1.8 °C 1020.5 hPa Calm     86% 0 mm
05:09 0.1 °C -1.9 °C 1020.5 hPa Calm     86% 0 mm
05:14 0 °C -2.1 °C 1020.5 hPa Calm     86% 0 mm
05:19 -0.2 °C -2.2 °C 1020.5 hPa Calm     86% 0 mm
05:24 -0.2 °C -2.1 °C 1020.5 hPa Calm     87% 0 mm
05:29 -0.2 °C -2.1 °C 1020.5 hPa Calm     87% 0 mm
05:34 -0.1 °C -2 °C 1020.5 hPa Calm     87% 0 mm
05:39 -0.2 °C -2.1 °C 1020.5 hPa Calm     87% 0 mm
05:44 -0.2 °C -2.1 °C 1020.5 hPa Calm     87% 0 mm
05:49 -0.1 °C -2 °C 1020.5 hPa Calm     87% 0 mm
05:54 0 °C -1.9 °C 1020.5 hPa Calm     87% 0 mm
05:59 0 °C -1.9 °C 1020.5 hPa Calm     87% 0 mm
06:04 -0.1 °C -2 °C 1020.5 hPa Calm     87% 0 mm
06:09 -0.2 °C -2.1 °C 1020.5 hPa Calm     87% 0 mm
06:14 -0.3 °C -2.2 °C 1020.9 hPa Calm     87% 0 mm
06:19 -0.6 °C -2.4 °C 1020.9 hPa Calm     87% 0 mm
06:24 -0.7 °C -2.6 °C 1020.9 hPa Calm     87% 0 mm
06:29 -0.8 °C -2.7 °C 1020.9 hPa Calm     87% 0 mm
06:34 -0.9 °C -2.8 °C 1020.9 hPa Calm     87% 0 mm
06:39 -0.9 °C -2.8 °C 1021.2 hPa Calm     87% 0 mm
06:44 -0.9 °C -2.8 °C 1021.2 hPa Calm     87% 0 mm
06:49 -1.1 °C -3 °C 1021.2 hPa Calm     87% 0 mm
06:54 -1.2 °C -3.1 °C 1021.2 hPa Calm     87% 0 mm
06:59 -1.2 °C -3.1 °C 1021.2 hPa Calm     87% 0 mm
07:04 -1.2 °C -3.1 °C 1021.2 hPa Calm     87% 0 mm
07:09 -0.8 °C -2.5 °C 1021.2 hPa Calm     88% 0 mm
07:14 -0.6 °C -2.3 °C 1021.2 hPa Calm     88% 0 mm
07:19 -0.6 °C -2.3 °C 1021.2 hPa Calm     88% 0 mm
07:24 -0.6 °C -2.3 °C 1021.2 hPa Calm     88% 0 mm
07:29 -0.7 °C -2.4 °C 1021.2 hPa Calm     88% 0 mm
07:34 -0.7 °C -2.4 °C 1021.2 hPa Calm     88% 0 mm
07:39 -0.6 °C -2.3 °C 1021.6 hPa Calm     88% 0 mm
07:44 -0.6 °C -2.3 °C 1021.2 hPa Calm     88% 0 mm
07:49 -0.6 °C -2.3 °C 1021.2 hPa Calm     88% 0 mm
07:54 -0.6 °C -2.3 °C 1021.2 hPa Calm     88% 0 mm
07:59 -0.6 °C -2.3 °C 1021.2 hPa Calm     88% 0 mm
08:04 -0.7 °C -2.4 °C 1021.2 hPa Calm     88% 0 mm
08:09 -0.3 °C -1.9 °C 1021.6 hPa Calm     89% 0 mm
08:14 -0.2 °C -1.8 °C 1021.6 hPa Calm     89% 0 mm
08:19 0.1 °C -1.5 °C 1021.6 hPa Calm     89% 0 mm
08:24 0.3 °C -1.3 °C 1021.6 hPa Calm     89% 0 mm
08:29 0.6 °C -1.2 °C 1021.9 hPa Calm     88% 0 mm
08:34 0.8 °C -1 °C 1021.9 hPa Calm     88% 0 mm
08:39 1.1 °C -0.7 °C 1021.9 hPa Calm     88% 0 mm
08:44 1.4 °C -0.5 °C 1021.9 hPa Calm     87% 0 mm
08:49 1.8 °C -0.3 °C 1021.9 hPa Calm     86% 0 mm
08:54 2.1 °C -0.2 °C 1021.9 hPa Calm     85% 0 mm
08:59 2.3 °C -0.2 °C 1021.9 hPa Calm     84% 0 mm
09:04 2.6 °C -0.1 °C 1021.9 hPa Calm     83% 0 mm
09:09 2.9 °C 0.1 °C 1021.9 hPa Calm     82% 0 mm
09:14 3.2 °C 0.3 °C 1021.9 hPa Calm     81% 0 mm
09:19 3.4 °C 0.3 °C 1021.9 hPa Calm     80% 0 mm
09:24 3.7 °C 0.6 °C 1021.9 hPa SSW 3.2 km/h 6.4 km/h 80% 0 mm
09:29 3.9 °C 0.6 °C 1021.9 hPa SSW 6.4 km/h 6.4 km/h 79% 0 mm
09:34 4.2 °C 0.7 °C 1021.9 hPa SSW 3.2 km/h 6.4 km/h 78% 0 mm
09:39 4.5 °C 0.8 °C 1021.9 hPa South 3.2 km/h 8 km/h 77% 0 mm
09:44 4.8 °C 0.9 °C 1021.9 hPa SSW 3.2 km/h 8 km/h 76% 0 mm
09:49 5.3 °C 1.2 °C 1022.2 hPa SSW 3.2 km/h 8 km/h 75% 0 mm
09:54 5.5 °C 1.2 °C 1022.2 hPa SSW 3.2 km/h 9.7 km/h 74% 0 mm
09:59 5.8 °C 1.3 °C 1022.2 hPa SW 4.8 km/h 11.3 km/h 73% 0 mm
10:04 6.2 °C 1.7 °C 1022.2 hPa SW 8 km/h 11.3 km/h 73% 0 mm
10:09 6.3 °C 1.7 °C 1022.2 hPa WSW 3.2 km/h 12.9 km/h 72% 0 mm
10:14 6.7 °C 1.8 °C 1022.2 hPa SW 4.8 km/h 12.9 km/h 71% 0 mm
10:19 6.8 °C 1.7 °C 1022.2 hPa SW 1.6 km/h 11.3 km/h 70% 0 mm
10:24 6.9 °C 2.1 °C 1022.2 hPa SW 11.3 km/h 14.5 km/h 71% 0 mm
10:29 7 °C 2.1 °C 1022.2 hPa South 9.7 km/h 17.7 km/h 71% 0 mm
10:34 7.1 °C 2.2 °C 1022.2 hPa SSW 9.7 km/h 16.1 km/h 71% 0 mm
10:39 7.1 °C 2.4 °C 1022.2 hPa SW 8 km/h 16.1 km/h 72% 0 mm
10:44 7.3 °C 2.4 °C 1022.2 hPa SW 8 km/h 14.5 km/h 71% 0 mm
10:49 7.6 °C 2.8 °C 1022.2 hPa SW 6.4 km/h 16.1 km/h 72% 0 mm
10:54 7.6 °C 2.6 °C 1022.2 hPa SW 14.5 km/h 16.1 km/h 71% 0 mm
10:59 7.6 °C 2.6 °C 1022.2 hPa West 6.4 km/h 16.1 km/h 71% 0 mm
11:04 7.9 °C 3.2 °C 1022.2 hPa WSW 6.4 km/h 12.9 km/h 72% 0 mm
11:09 7.9 °C 2.9 °C 1022.2 hPa WSW 8 km/h 16.1 km/h 71% 0 mm
11:14 7.7 °C 3 °C 1022.2 hPa SW 9.7 km/h 16.1 km/h 72% 0 mm
11:19 7.8 °C 3.1 °C 1021.9 hPa WSW 9.7 km/h 14.5 km/h 72% 0 mm
11:24 7.9 °C 3.3 °C 1021.9 hPa West 8 km/h 12.9 km/h 73% 0 mm
11:29 7.8 °C 3.1 °C 1021.9 hPa SW 4.8 km/h 12.9 km/h 72% 0 mm
11:34 7.6 °C 3 °C 1021.9 hPa SW 6.4 km/h 14.5 km/h 73% 0 mm
11:39 7.6 °C 3.3 °C 1021.9 hPa SW 8 km/h 16.1 km/h 74% 0 mm
11:44 7.8 °C 3.4 °C 1021.9 hPa SW 8 km/h 24.1 km/h 74% 0 mm
11:49 7.8 °C 3.5 °C 1021.9 hPa WSW 9.7 km/h 24.1 km/h 74% 0 mm
11:54 7.9 °C 3.6 °C 1021.9 hPa West 8 km/h 17.7 km/h 74% 0 mm
11:59 7.8 °C 3.7 °C 1021.9 hPa SSW 11.3 km/h 16.1 km/h 75% 0 mm
12:04 8.2 °C 4 °C 1021.9 hPa WSW 6.4 km/h 17.7 km/h 75% 0 mm
12:09 8.3 °C 4.1 °C 1021.9 hPa SW 12.9 km/h 12.9 km/h 75% 0 mm
12:14 8.2 °C 4 °C 1021.9 hPa WSW 8 km/h 19.3 km/h 75% 0 mm
12:19 7.9 °C 3.7 °C 1021.9 hPa WSW 11.3 km/h 20.9 km/h 75% 0 mm
12:24 7.8 °C 4 °C 1021.9 hPa WSW 11.3 km/h 20.9 km/h 77% 0 mm
12:29 7.7 °C 3.9 °C 1021.6 hPa WSW 11.3 km/h 19.3 km/h 77% 0 mm
12:34 7.7 °C 4.1 °C 1021.6 hPa WSW 8 km/h 20.9 km/h 78% 0 mm
12:39 7.8 °C 4.2 °C 1021.9 hPa WSW 9.7 km/h 20.9 km/h 78% 0 mm
12:44 7.7 °C 4.1 °C 1021.9 hPa WSW 9.7 km/h 19.3 km/h 78% 0 mm
12:49 7.6 °C 4 °C 1021.6 hPa WSW 11.3 km/h 20.9 km/h 78% 0 mm
12:54 7.6 °C 4.2 °C 1021.6 hPa WSW 11.3 km/h 20.9 km/h 79% 0 mm
12:59 7.8 °C 4.4 °C 1021.6 hPa WSW 8 km/h 20.9 km/h 79% 0 mm
13:04 7.8 °C 4.4 °C 1021.6 hPa SW 16.1 km/h 17.7 km/h 79% 0 mm
13:09 7.8 °C 4.1 °C 1021.6 hPa WSW 6.4 km/h 20.9 km/h 77% 0 mm
13:14 7.9 °C 4.2 °C 1021.6 hPa SW 14.5 km/h 17.7 km/h 77% 0 mm
13:19 8.1 °C 4.4 °C 1021.6 hPa SW 8 km/h 14.5 km/h 78% 0 mm
13:24 8 °C 4.4 °C 1021.6 hPa WSW 4.8 km/h 17.7 km/h 78% 0 mm
13:29 7.9 °C 4.3 °C 1021.9 hPa SW 17.7 km/h 19.3 km/h 78% 0 mm
13:34 7.9 °C 4.3 °C 1021.9 hPa WSW 9.7 km/h 19.3 km/h 78% 0 mm
13:39 7.9 °C 4.1 °C 1021.9 hPa WSW 9.7 km/h 19.3 km/h 77% 0 mm
13:44 7.9 °C 4.3 °C 1021.9 hPa WSW 9.7 km/h 19.3 km/h 78% 0 mm
13:49 7.8 °C 4.4 °C 1021.6 hPa SW 8 km/h 19.3 km/h 79% 0 mm
13:54 7.8 °C 4.4 °C 1021.9 hPa SW 9.7 km/h 20.9 km/h 79% 0 mm
13:59 7.8 °C 4.2 °C 1021.6 hPa SSW 11.3 km/h 22.5 km/h 78% 0 mm
14:04 7.9 °C 4.3 °C 1021.6 hPa SW 4.8 km/h 12.9 km/h 78% 0 mm
14:09 8.1 °C 4.4 °C 1021.6 hPa WSW 8 km/h 12.9 km/h 78% 0 mm
14:14 8.2 °C 4.4 °C 1021.6 hPa SW 8 km/h 19.3 km/h 77% 0 mm
14:19 8 °C 4.2 °C 1021.6 hPa SW 6.4 km/h 20.9 km/h 77% 0 mm
14:24 8 °C 4.2 °C 1021.6 hPa WSW 8 km/h 24.1 km/h 77% 0 mm
14:29 8 °C 4.2 °C 1021.6 hPa WSW 16.1 km/h 19.3 km/h 77% 0 mm
14:34 7.9 °C 4.2 °C 1021.6 hPa West 8 km/h 19.3 km/h 77% 0 mm
14:39 7.9 °C 4.3 °C 1021.6 hPa WSW 6.4 km/h 17.7 km/h 78% 0 mm
14:44 7.9 °C 4.3 °C 1021.6 hPa WSW 8 km/h 17.7 km/h 78% 0 mm
14:49 7.8 °C 4.2 °C 1021.6 hPa WSW 8 km/h 17.7 km/h 78% 0 mm
14:54 7.9 °C 4.1 °C 1021.6 hPa WSW 8 km/h 16.1 km/h 77% 0 mm
14:59 8.1 °C 4.3 °C 1021.9 hPa SW 8 km/h 16.1 km/h 77% 0 mm
15:04 8.3 °C 4.5 °C 1021.9 hPa SW 8 km/h 17.7 km/h 77% 0 mm
15:09 8.2 °C 4.2 °C 1021.9 hPa West 9.7 km/h 24.1 km/h 76% 0 mm
15:14 8.1 °C 3.9 °C 1021.9 hPa South 9.7 km/h 14.5 km/h 75% 0 mm
15:19 7.9 °C 3.9 °C 1022.2 hPa WSW 8 km/h 14.5 km/h 76% 0 mm
15:24 7.8 °C 3.6 °C 1022.2 hPa SW 9.7 km/h 17.7 km/h 75% 0 mm
15:29 7.7 °C 3.8 °C 1021.9 hPa WSW 9.7 km/h 17.7 km/h 76% 0 mm
15:34 7.6 °C 3.8 °C 1021.9 hPa WSW 12.9 km/h 20.9 km/h 77% 0 mm
15:39 7.5 °C 3.7 °C 1021.9 hPa SW 11.3 km/h 17.7 km/h 77% 0 mm
15:44 7.4 °C 3.6 °C 1022.2 hPa West 8 km/h 16.1 km/h 77% 0 mm
15:49 7.3 °C 3.7 °C 1022.2 hPa SW 9.7 km/h 16.1 km/h 78% 0 mm
15:54 7.3 °C 3.7 °C 1021.9 hPa SW 9.7 km/h 17.7 km/h 78% 0 mm
15:59 7.2 °C 3.6 °C 1021.9 hPa SW 14.5 km/h 16.1 km/h 78% 0 mm
16:04 7.1 °C 3.6 °C 1022.2 hPa WSW 6.4 km/h 20.9 km/h 78% 0 mm
16:09 7.1 °C 3.5 °C 1022.2 hPa WSW 6.4 km/h 17.7 km/h 78% 0 mm
16:14 7.1 °C 3.5 °C 1022.2 hPa SW 6.4 km/h 14.5 km/h 78% 0 mm
16:19 6.9 °C 3.4 °C 1022.6 hPa WSW 8 km/h 14.5 km/h 78% 0 mm
16:24 6.8 °C 3.3 °C 1022.6 hPa WSW 6.4 km/h 14.5 km/h 78% 0 mm
16:29 6.7 °C 3.3 °C 1022.6 hPa WSW 8 km/h 16.1 km/h 79% 0 mm
16:34 6.7 °C 3.3 °C 1022.6 hPa WSW 8 km/h 19.3 km/h 79% 0 mm
16:39 6.7 °C 3.3 °C 1022.6 hPa WSW 8 km/h 19.3 km/h 79% 0 mm
16:44 6.6 °C 3.1 °C 1022.6 hPa SW 14.5 km/h 19.3 km/h 78% 0 mm
16:54 6.4 °C 2.9 °C 1022.6 hPa WSW 6.4 km/h 16.1 km/h 78% 0 mm
16:59 6.3 °C 2.8 °C 1022.6 hPa SW 4.8 km/h 12.9 km/h 78% 0 mm
17:04 6.2 °C 2.8 °C 1022.6 hPa WSW 6.4 km/h 9.7 km/h 79% 0 mm
17:09 6.1 °C 2.7 °C 1022.6 hPa WSW 1.6 km/h 6.4 km/h 79% 0 mm
17:14 5.9 °C 2.6 °C 1022.6 hPa WSW 1.6 km/h 8 km/h 79% 0 mm
17:19 5.8 °C 2.6 °C 1022.6 hPa WSW 1.6 km/h 4.8 km/h 80% 0 mm
17:24 5.7 °C 2.5 °C 1022.6 hPa WSW 1.6 km/h 4.8 km/h 80% 0 mm
17:29 5.6 °C 2.6 °C 1022.6 hPa WSW 3.2 km/h 6.4 km/h 81% 0 mm
17:34 5.6 °C 2.6 °C 1022.6 hPa WSW 3.2 km/h 6.4 km/h 81% 0 mm
17:39 5.4 °C 2.4 °C 1022.6 hPa WSW 1.6 km/h 4.8 km/h 81% 0 mm
17:44 5.2 °C 2.2 °C 1022.9 hPa Calm     81% 0 mm
17:49 4.9 °C 2.1 °C 1022.9 hPa Calm     82% 0 mm
17:54 4.7 °C 1.8 °C 1022.9 hPa Calm     82% 0 mm
17:59 4.6 °C 1.9 °C 1022.9 hPa Calm   3.2 km/h 83% 0 mm
18:04 4.4 °C 1.8 °C 1022.9 hPa Calm     83% 0 mm
18:09 4.2 °C 1.8 °C 1023.2 hPa Calm     84% 0 mm
18:14 4.1 °C 1.7 °C 1023.2 hPa Calm     84% 0 mm
18:19 4.1 °C 1.8 °C 1023.2 hPa Calm     85% 0 mm
18:24 4.1 °C 1.8 °C 1023.2 hPa Calm     85% 0 mm
18:29 4.2 °C 2.1 °C 1023.6 hPa Calm   4.8 km/h 86% 0 mm
18:34 4.5 °C 2.5 °C 1023.6 hPa West 1.6 km/h 8 km/h 87% 0 mm
18:39 4.7 °C 2.5 °C 1023.6 hPa Calm   6.4 km/h 86% 0 mm
18:44 4.8 °C 2.8 °C 1023.6 hPa West 3.2 km/h 6.4 km/h 87% 0 mm
18:49 4.8 °C 2.8 °C 1023.9 hPa WNW 1.6 km/h 6.4 km/h 87% 0 mm
18:54 4.8 °C 2.6 °C 1023.9 hPa Calm   4.8 km/h 86% 0 mm
18:59 4.7 °C 2.6 °C 1023.9 hPa Calm   4.8 km/h 86% 0 mm
19:04 4.6 °C 2.4 °C 1023.9 hPa Calm     86% 0 mm
19:09 4.6 °C 2.4 °C 1023.9 hPa Calm     86% 0 mm
19:14 4.3 °C 2.2 °C 1023.9 hPa Calm     86% 0 mm
19:19 3.9 °C 1.8 °C 1024.3 hPa Calm     86% 0 mm
19:24 3.6 °C 1.5 °C 1024.3 hPa Calm     86% 0 mm
19:29 3.5 °C 1.6 °C 1024.3 hPa Calm     87% 0 mm
19:34 3.3 °C 1.4 °C 1024.3 hPa Calm     87% 0 mm
19:39 3.2 °C 1.3 °C 1024.3 hPa Calm     87% 0 mm
19:44 3 °C 1.1 °C 1024.6 hPa Calm     87% 0 mm
19:49 2.8 °C 0.8 °C 1024.6 hPa Calm     87% 0 mm
19:54 2.6 °C 0.8 °C 1024.6 hPa Calm     88% 0 mm
19:59 2.4 °C 0.7 °C 1024.6 hPa Calm     88% 0 mm
20:04 2.2 °C 0.4 °C 1024.6 hPa Calm     88% 0 mm
20:09 2 °C 0.2 °C 1024.6 hPa Calm     88% 0 mm
20:14 1.8 °C 0 °C 1024.6 hPa Calm     88% 0 mm
20:19 1.6 °C -0.2 °C 1024.6 hPa Calm     88% 0 mm
20:24 1.4 °C -0.3 °C 1024.6 hPa Calm     88% 0 mm
20:29 1.4 °C -0.2 °C 1024.6 hPa Calm     89% 0 mm
20:34 1.3 °C -0.3 °C 1024.6 hPa Calm     89% 0 mm
20:39 1.4 °C -0.2 °C 1024.6 hPa Calm     89% 0 mm
20:44 1.3 °C -0.3 °C 1024.9 hPa Calm     89% 0 mm
20:49 1.1 °C -0.5 °C 1024.9 hPa Calm     89% 0 mm
20:54 0.9 °C -0.7 °C 1024.9 hPa Calm     89% 0 mm
20:59 0.8 °C -0.8 °C 1024.9 hPa Calm     89% 0 mm
21:04 0.8 °C -0.8 °C 1024.9 hPa Calm     89% 0 mm
21:09 0.7 °C -0.9 °C 1024.9 hPa Calm     89% 0 mm
21:14 0.7 °C -0.9 °C 1024.9 hPa Calm     89% 0 mm
21:19 0.7 °C -0.8 °C 1024.9 hPa Calm     90% 0 mm
21:24 0.8 °C -0.7 °C 1024.9 hPa Calm     90% 0 mm
21:29 0.6 °C -1.1 °C 1024.9 hPa Calm     89% 0 mm
21:34 0.4 °C -1 °C 1024.9 hPa Calm     90% 0 mm
21:39 0.4 °C -1.1 °C 1024.9 hPa Calm     90% 0 mm
21:49 0.4 °C -1.1 °C 1024.9 hPa Calm     90% 0 mm
21:54 0.4 °C -1 °C 1024.9 hPa Calm     90% 0 mm
21:59 0.3 °C -1.2 °C 1024.9 hPa Calm     90% 0 mm
22:04 0.3 °C -1.1 °C 1024.9 hPa Calm     90% 0 mm
22:09 0.2 °C -1.2 °C 1024.9 hPa Calm     90% 0 mm
22:19 0.1 °C -1.4 °C 1024.9 hPa Calm     90% 0 mm
22:24 0.3 °C -1 °C 1024.9 hPa Calm     91% 0 mm
22:29 0.4 °C -1.1 °C 1024.9 hPa Calm     90% 0 mm
22:34 0.2 °C -1.3 °C 1024.9 hPa Calm     90% 0 mm
22:39 0.1 °C -1.4 °C 1024.9 hPa Calm     90% 0 mm
22:44 0 °C -1.4 °C 1025.3 hPa Calm     90% 0 mm
22:49 -0.2 °C -1.6 °C 1025.3 hPa Calm     90% 0 mm
22:54 -0.3 °C -1.7 °C 1025.3 hPa Calm     90% 0 mm
22:59 -0.4 °C -1.8 °C 1025.3 hPa Calm     90% 0 mm
23:04 -0.4 °C -1.8 °C 1025.3 hPa Calm     90% 0 mm
23:09 -0.4 °C -1.9 °C 1025.3 hPa Calm     90% 0 mm
23:14 -0.5 °C -1.8 °C 1025.3 hPa Calm     91% 0 mm
23:19 -0.4 °C -1.7 °C 1025.3 hPa Calm     91% 0 mm
23:24 -0.3 °C -1.6 °C 1025.3 hPa Calm     91% 0 mm
23:29 -0.2 °C -1.4 °C 1025.3 hPa Calm     91% 0 mm
23:34 0 °C -1.3 °C 1025.3 hPa Calm     91% 0 mm
23:39 -0.1 °C -1.3 °C 1025.3 hPa Calm     91% 0 mm
23:44 -0.3 °C -1.8 °C 1025.3 hPa Calm     90% 0 mm
23:49 -0.7 °C -1.9 °C 1025.3 hPa Calm     91% 0 mm
23:54 -0.8 °C -2.1 °C 1025.3 hPa Calm     91% 0 mm
23:59 -1 °C -2.4 °C 1025.3 hPa Calm     90% 0 mm
Buffalo, New York, USA
Compliments of Weather Underground - 2.5 mb